Time;durP1;ratioP1;P1;durP2;ratioP2;P2;SDS_P1;SDS_P2;PMS_P1;PMS_P2;Temp;Humidity;BMP_temperature;BMP_pressure;BME280_temperature;BME280_humidity;BME280_pressure;Samples;Min_cycle;Max_cycle;Signal;HPM_P1;HPM_P2
2023/06/15 00:01:58;;;;;;;7.53;6.73;;;;;;;16.36;96.30;100892.38;4992927;58;1141130;-64
2023/06/15 00:07:04;;;;;;;13.50;5.97;;;;;;;16.29;95.85;100885.97;4972410;58;1138598;-62
2023/06/15 00:12:09;;;;;;;10.27;6.23;;;;;;;16.32;96.63;100884.34;4972228;57;1140656;-65
2023/06/15 00:17:15;;;;;;;11.10;5.90;;;;;;;16.37;96.68;100880.72;4991985;57;1140659;-63
2023/06/15 00:22:21;;;;;;;11.80;7.08;;;;;;;16.35;96.27;100878.69;4972713;56;1140962;-65
2023/06/15 00:27:27;;;;;;;8.23;6.87;;;;;;;16.19;95.85;100879.84;4960159;56;1140852;-66
2023/06/15 00:32:33;;;;;;;13.60;6.40;;;;;;;16.09;97.02;100875.02;4932045;57;1138756;-63
2023/06/15 00:37:40;;;;;;;8.98;5.55;;;;;;;16.13;97.44;100867.07;4913507;58;1140764;-63
2023/06/15 00:42:46;;;;;;;10.50;5.80;;;;;;;16.14;97.29;100862.92;4972635;58;1138829;-63
2023/06/15 00:47:51;;;;;;;12.67;7.37;;;;;;;16.15;97.36;100860.61;5018902;57;1140985;-64
2023/06/15 00:53:03;;;;;;;9.03;6.03;;;;;;;16.13;97.08;100857.73;5076248;57;1140796;-64
2023/06/15 00:58:08;;;;;;;15.83;5.67;;;;;;;15.96;96.47;100850.48;5056661;57;1138792;-63
2023/06/15 01:03:15;;;;;;;12.53;5.90;;;;;;;15.87;97.14;100850.87;5054934;57;1140779;-63
2023/06/15 01:08:21;;;;;;;7.47;5.07;;;;;;;15.87;97.35;100846.87;5059085;57;1140863;-66
2023/06/15 01:13:28;;;;;;;7.72;5.87;;;;;;;16.00;98.39;100842.05;4990841;58;1138730;-66
2023/06/15 01:18:46;;;;;;;6.78;5.35;;;;;;;15.98;97.58;100842.69;4974001;57;1138934;-63
2023/06/15 01:24:09;;;;;;;14.30;5.22;;;;;;;15.93;97.17;100841.44;5053664;57;1144873;-64
2023/06/15 01:29:20;;;;;;;10.30;5.37;;;;;;;15.95;98.29;100843.47;5071964;57;1140800;-65
2023/06/15 01:34:25;;;;;;;10.57;5.83;;;;;;;15.97;97.66;100840.16;4975527;57;1140837;-62
2023/06/15 01:39:31;;;;;;;6.67;5.70;;;;;;;15.96;97.39;100847.33;4969427;58;1140896;-65
2023/06/15 01:44:37;;;;;;;6.28;4.95;;;;;;;15.92;97.39;100845.09;4979294;58;1138866;-65
2023/06/15 01:49:43;;;;;;;16.23;5.83;;;;;;;15.90;97.75;100847.05;5035176;57;1138687;-62
2023/06/15 01:54:49;;;;;;;11.07;6.30;;;;;;;15.60;97.09;100831.62;5041309;57;1140682;-66
2023/06/15 01:59:54;;;;;;;10.40;6.63;;;;;;;15.60;97.09;100831.62;5060880;57;1140983;-65
2023/06/15 02:05:01;;;;;;;11.03;6.20;;;;;;;15.56;97.27;100847.58;5040909;57;1140864;-66
2023/06/15 02:10:08;;;;;;;8.10;6.03;;;;;;;15.52;97.73;100847.48;5041333;57;1140762;-65
2023/06/15 02:15:14;;;;;;;15.97;6.27;;;;;;;15.57;98.55;100842.59;5053725;57;1138917;-64
2023/06/15 02:20:20;;;;;;;5.50;4.93;;;;;;;15.58;98.85;100836.28;4959856;58;1141022;-64
2023/06/15 02:25:32;;;;;;;8.67;5.37;;;;;;;15.61;98.91;100832.47;4960343;58;1138503;-63
2023/06/15 02:30:34;;;;;;;7.34;4.56;;;;;;;15.61;98.52;100838.64;4993053;57;1138555;-64
2023/06/15 02:35:40;;;;;;;8.78;4.67;;;;;;;15.67;98.56;100830.57;5041326;57;1138846;-65
2023/06/15 02:40:45;;;;;;;10.90;5.40;;;;;;;15.64;98.06;100827.70;5042727;57;1138784;-65
2023/06/15 02:45:51;;;;;;;6.70;4.47;;;;;;;15.48;97.71;100828.25;5042540;57;1140937;-64
2023/06/15 02:50:57;;;;;;;8.57;5.10;;;;;;;15.47;98.86;100829.23;4994288;58;1138970;-65
2023/06/15 02:56:04;;;;;;;8.43;4.70;;;;;;;15.33;98.91;100824.84;4974902;57;1138950;-63
2023/06/15 03:01:11;;;;;;;7.37;4.57;;;;;;;15.25;100.00;100825.56;4974166;57;1139129;-61
2023/06/15 03:06:18;;;;;;;12.33;4.60;;;;;;;15.18;100.00;100828.43;4985380;58;1140635;-63
2023/06/15 03:11:24;;;;;;;11.10;3.77;;;;;;;15.17;100.00;100828.08;4970001;58;1142753;-63
2023/06/15 03:16:32;;;;;;;4.72;4.25;;;;;;;15.24;100.00;100824.37;4977863;58;1142976;-65
2023/06/15 03:21:38;;;;;;;7.03;4.90;;;;;;;15.35;100.00;100826.38;4991997;57;1141028;-64
2023/06/15 03:26:44;;;;;;;5.75;4.67;;;;;;;15.47;100.00;100820.40;4972378;58;1140955;-65
2023/06/15 03:31:50;;;;;;;6.17;4.90;;;;;;;15.54;100.00;100828.67;4938573;58;1140806;-65
2023/06/15 03:36:56;;;;;;;4.95;4.17;;;;;;;15.54;100.00;100835.34;4911962;59;1141053;-63
2023/06/15 03:42:02;;;;;;;10.33;5.47;;;;;;;15.52;100.00;100835.97;4892670;58;1140890;-65
2023/06/15 03:47:08;;;;;;;11.87;4.30;;;;;;;15.52;100.00;100846.14;4968233;58;1143037;-65
2023/06/15 03:52:15;;;;;;;5.90;4.83;;;;;;;15.42;100.00;100841.33;4990979;58;1143000;-62
2023/06/15 03:57:20;;;;;;;4.93;4.43;;;;;;;15.39;100.00;100845.61;4953402;58;1140864;-64
2023/06/15 04:02:27;;;;;;;9.03;4.60;;;;;;;15.38;100.00;100843.92;4858217;58;1140803;-66
2023/06/15 04:07:34;;;;;;;5.40;4.10;;;;;;;15.40;100.00;100841.95;4991885;58;1140862;-63
2023/06/15 04:12:40;;;;;;;6.17;3.70;;;;;;;15.41;100.00;100836.98;4972449;57;1140951;-64
2023/06/15 04:17:48;;;;;;;7.53;3.77;;;;;;;15.20;100.00;100840.28;4972411;57;1140845;-64
2023/06/15 04:22:53;;;;;;;6.37;3.80;;;;;;;15.01;100.00;100839.30;4972505;57;1140941;-63
2023/06/15 04:28:00;;;;;;;6.63;4.17;;;;;;;14.91;100.00;100834.95;4991654;57;1140722;-62
2023/06/15 04:33:07;;;;;;;6.10;4.33;;;;;;;14.78;100.00;100828.56;5024391;57;1140788;-64
2023/06/15 04:38:14;;;;;;;8.67;4.53;;;;;;;14.65;100.00;100837.31;5048822;57;1141042;-65
2023/06/15 04:43:22;;;;;;;9.10;4.27;;;;;;;14.57;100.00;100833.14;5068542;57;1140860;-63
2023/06/15 04:48:28;;;;;;;9.03;4.63;;;;;;;14.53;100.00;100830.39;4988877;57;1140707;-64
2023/06/15 04:53:34;;;;;;;4.43;4.00;;;;;;;14.49;100.00;100836.50;4960243;57;1140793;-63
2023/06/15 04:58:40;;;;;;;9.98;5.36;;;;;;;14.47;100.00;100838.45;4979233;58;1140999;-65
2023/06/15 05:03:46;;;;;;;6.22;4.25;;;;;;;14.48;100.00;100840.14;5025960;57;1140824;-66
2023/06/15 05:08:52;;;;;;;5.28;4.33;;;;;;;14.49;100.00;100843.16;5041192;57;1140981;-64
2023/06/15 05:13:59;;;;;;;11.83;5.30;;;;;;;14.51;100.00;100842.53;5060551;57;1140782;-65
2023/06/15 05:19:05;;;;;;;13.60;5.80;;;;;;;14.56;100.00;100846.09;5040819;57;1142989;-63
2023/06/15 05:24:11;;;;;;;5.87;4.63;;;;;;;14.63;100.00;100847.25;5040056;57;1142952;-62
2023/06/15 05:29:17;;;;;;;7.67;4.97;;;;;;;14.68;100.00;100844.51;5060753;57;1140848;-64
2023/06/15 05:34:23;;;;;;;10.90;5.93;;;;;;;14.75;100.00;100846.14;4963691;57;1140689;-64
2023/06/15 05:39:30;;;;;;;6.47;5.60;;;;;;;14.77;100.00;100845.52;4959341;57;1142991;-65
2023/06/15 05:44:36;;;;;;;11.30;6.50;;;;;;;14.84;100.00;100846.63;4978999;57;1140997;-63
2023/06/15 05:49:43;;;;;;;13.73;6.27;;;;;;;15.04;100.00;100845.68;4966114;57;1142877;-64
2023/06/15 05:54:50;;;;;;;8.90;7.30;;;;;;;15.24;100.00;100847.02;4970594;58;1142787;-62
2023/06/15 05:59:57;;;;;;;6.53;5.87;;;;;;;15.45;100.00;100855.68;4993908;57;1140890;-64
2023/06/15 06:05:03;;;;;;;6.83;6.13;;;;;;;15.62;100.00;100852.81;5027805;57;1140618;-62
2023/06/15 06:10:10;;;;;;;10.97;6.80;;;;;;;15.73;100.00;100848.19;4972362;57;1141026;-63
2023/06/15 06:15:16;;;;;;;9.60;5.53;;;;;;;15.90;100.00;100849.72;4989690;58;1142958;-64
2023/06/15 06:20:21;;;;;;;12.90;7.20;;;;;;;16.03;100.00;100849.77;4970038;58;1140758;-63
2023/06/15 06:25:27;;;;;;;11.30;7.33;;;;;;;16.09;100.00;100854.50;4969613;58;1142835;-63
2023/06/15 06:30:34;;;;;;;10.35;6.70;;;;;;;16.17;100.00;100851.97;5016401;57;1151846;-66
2023/06/15 06:35:39;;;;;;;7.17;6.28;;;;;;;16.23;100.00;100850.52;5051650;57;1142812;-62
2023/06/15 06:40:45;;;;;;;10.13;6.43;;;;;;;16.28;100.00;100865.60;5000235;57;1140610;-63
2023/06/15 06:45:50;;;;;;;10.67;7.03;;;;;;;16.34;100.00;100853.02;4985198;57;1142974;-62
2023/06/15 06:50:56;;;;;;;9.20;6.80;;;;;;;16.41;100.00;100855.42;5066390;57;1143014;-62
2023/06/15 06:56:01;;;;;;;11.83;8.57;;;;;;;16.46;100.00;100848.31;5040988;57;1140671;-62
2023/06/15 07:01:07;;;;;;;8.93;7.12;;;;;;;16.45;100.00;100851.97;5040729;57;1142766;-64
2023/06/15 07:06:12;;;;;;;13.27;5.27;;;;;;;16.48;100.00;100848.52;5050812;57;1140677;-63
2023/06/15 07:11:18;;;;;;;9.63;5.97;;;;;;;16.61;100.00;100854.83;5021979;57;1142924;-63
2023/06/15 07:16:24;;;;;;;8.07;5.80;;;;;;;16.73;100.00;100845.64;5022288;57;1140866;-64
2023/06/15 07:21:29;;;;;;;10.53;5.67;;;;;;;16.81;100.00;100851.05;5042318;57;1140910;-62
2023/06/15 07:26:35;;;;;;;10.03;6.17;;;;;;;16.82;100.00;100858.57;4980433;57;1142925;-64
2023/06/15 07:31:40;;;;;;;6.47;4.95;;;;;;;16.87;100.00;100852.29;4963817;57;1142828;-65
2023/06/15 07:36:46;;;;;;;10.75;4.95;;;;;;;16.94;100.00;100855.21;4993421;57;1140750;-64
2023/06/15 07:41:52;;;;;;;7.10;4.80;;;;;;;17.08;100.00;100850.17;4991508;57;1142878;-62
2023/06/15 07:46:57;;;;;;;13.30;5.03;;;;;;;17.24;100.00;100838.79;5053793;57;1140742;-64
2023/06/15 07:52:03;;;;;;;8.43;6.00;;;;;;;17.23;100.00;100853.98;5053307;57;1142981;-63
2023/06/15 07:57:08;;;;;;;9.70;5.30;;;;;;;17.31;100.00;100848.35;5073750;57;1140726;-62
2023/06/15 08:02:14;;;;;;;6.07;4.80;;;;;;;17.44;100.00;100841.61;5047237;57;1140693;-64
2023/06/15 08:07:19;;;;;;;10.10;5.60;;;;;;;17.51;100.00;100840.50;5026792;57;1140700;-64
2023/06/15 08:12:25;;;;;;;7.10;3.60;;;;;;;17.44;100.00;100840.77;5041556;57;1142720;-64
2023/06/15 08:17:30;;;;;;;5.60;4.77;;;;;;;17.56;100.00;100828.35;5022322;57;1140726;-65
2023/06/15 08:22:37;;;;;;;7.17;4.53;;;;;;;17.65;100.00;100829.77;5002703;57;1140969;-65
2023/06/15 08:27:43;;;;;;;7.60;5.70;;;;;;;17.75;100.00;100831.33;5030321;57;1140797;-65
2023/06/15 08:32:48;;;;;;;15.10;6.20;;;;;;;17.82;100.00;100834.22;5002902;57;1140888;-63
2023/06/15 08:37:55;;;;;;;10.40;6.00;;;;;;;17.77;100.00;100824.48;4966519;57;1143026;-65
2023/06/15 08:43:01;;;;;;;11.60;6.20;;;;;;;17.87;100.00;100828.72;5040712;57;1143092;-65
2023/06/15 08:48:09;;;;;;;22.33;5.83;;;;;;;17.94;100.00;100836.97;5060310;57;1142760;-65
2023/06/15 08:53:15;;;;;;;5.33;4.03;;;;;;;18.01;100.00;100838.52;5041862;57;1142787;-63
2023/06/15 08:58:21;;;;;;;5.97;3.57;;;;;;;18.09;100.00;100839.89;5053737;57;1140950;-64
2023/06/15 09:03:27;;;;;;;5.03;3.53;;;;;;;18.17;100.00;100838.11;5012266;57;1140616;-65
2023/06/15 09:08:33;;;;;;;5.57;4.13;;;;;;;18.23;100.00;100842.80;4855849;59;1140828;-65
2023/06/15 09:13:38;;;;;;;9.33;4.70;;;;;;;18.17;100.00;100844.80;4892479;59;1140842;-65
2023/06/15 09:18:51;;;;;;;6.30;4.57;;;;;;;18.17;100.00;100847.97;4892586;59;1140849;-62
2023/06/15 09:24:05;;;;;;;5.50;3.83;;;;;;;18.23;100.00;100845.48;4911791;59;1140992;-64
2023/06/15 09:29:12;;;;;;;9.28;3.77;;;;;;;18.28;100.00;100845.00;4937262;58;1140621;-64
2023/06/15 09:34:17;;;;;;;4.75;3.22;;;;;;;18.36;100.00;100846.36;4971894;58;1140810;-62
2023/06/15 09:39:24;;;;;;;5.60;3.20;;;;;;;18.55;100.00;100835.39;4991307;58;1141192;-63
2023/06/15 09:44:30;;;;;;;5.87;3.10;;;;;;;18.86;100.00;100824.95;4971703;58;1140898;-65
2023/06/15 09:49:36;;;;;;;4.92;3.22;;;;;;;19.13;100.00;100822.45;4971577;58;1140510;-63
2023/06/15 09:54:42;;;;;;;5.38;3.18;;;;;;;19.47;100.00;100810.72;4991106;58;1140863;-63
2023/06/15 09:59:48;;;;;;;5.33;3.83;;;;;;;19.73;100.00;100803.31;4968729;57;1140819;-63
2023/06/15 10:04:54;;;;;;;8.63;4.08;;;;;;;19.89;100.00;100791.70;5045142;57;1141014;-62
2023/06/15 10:10:01;;;;;;;13.90;6.40;;;;;;;20.04;100.00;100776.54;5050632;57;1140591;-65
2023/06/15 10:15:12;;;;;;;6.96;4.28;;;;;;;20.04;100.00;100776.54;5030425;57;1142802;-65
2023/06/15 10:20:19;;;;;;;5.17;4.37;;;;;;;20.44;100.00;100771.53;5030184;57;1140636;-63
2023/06/15 10:25:27;;;;;;;10.40;4.75;;;;;;;20.71;100.00;100772.86;5015824;57;1140714;-63
2023/06/15 10:30:59;;;;;;;10.72;4.65;;;;;;;20.66;100.00;100770.70;4968250;57;1142985;-63
2023/06/15 10:36:18;;;;;;;8.80;4.43;;;;;;;20.60;100.00;100764.71;4969162;57;1143038;-63
2023/06/15 10:41:24;;;;;;;6.60;4.12;;;;;;;20.69;97.51;100759.59;4969352;58;1140683;-64
2023/06/15 10:46:35;;;;;;;17.55;5.90;;;;;;;20.77;97.59;100772.66;4989065;58;1138712;-65
2023/06/15 10:51:45;;;;;;;13.22;6.28;;;;;;;20.81;95.98;100768.08;4969398;58;1140968;-64
2023/06/15 10:56:58;;;;;;;6.25;5.65;;;;;;;20.88;98.79;100756.95;4968387;57;1140779;-63
2023/06/15 11:02:05;;;;;;;10.00;6.50;;;;;;;21.00;98.85;100764.07;5009091;57;1138719;-65
2023/06/15 11:07:12;;;;;;;7.42;6.35;;;;;;;21.05;97.69;100763.03;5010741;57;1140721;-65
2023/06/15 11:12:41;;;;;;;9.90;5.92;;;;;;;20.90;96.73;100761.64;4970436;57;1138834;-64
2023/06/15 11:18:03;;;;;;;10.75;5.67;;;;;;;20.93;97.76;100761.80;4969987;58;1138626;-64
2023/06/15 11:23:19;;;;;;;12.30;6.05;;;;;;;20.93;97.42;100757.76;5040198;57;1140954;-63
2023/06/15 11:28:24;;;;;;;9.08;6.80;;;;;;;21.02;97.60;100756.16;5035093;57;1140732;-65
2023/06/15 11:33:40;;;;;;;13.90;7.10;;;;;;;21.05;97.00;100751.77;4966813;58;1138792;-62
2023/06/15 11:38:45;;;;;;;12.63;7.75;;;;;;;21.08;98.30;100751.92;4965370;58;1140811;-65
2023/06/15 11:43:52;;;;;;;12.13;6.00;;;;;;;21.10;97.20;100755.23;4965843;58;1140763;-64
2023/06/15 11:48:59;;;;;;;8.15;5.80;;;;;;;21.04;94.37;100749.25;4984939;58;1140709;-65
2023/06/15 11:54:07;;;;;;;10.05;5.70;;;;;;;20.89;92.46;100748.38;4965866;58;1138676;-65
2023/06/15 11:59:15;;;;;;;8.80;5.83;;;;;;;20.79;94.21;100745.91;4963945;58;1140832;-63
2023/06/15 12:04:21;;;;;;;6.20;5.12;;;;;;;20.79;93.65;100738.34;4979949;57;1138620;-64
2023/06/15 12:09:27;;;;;;;6.05;5.47;;;;;;;20.77;92.96;100733.18;4959920;58;1138759;-64
2023/06/15 12:14:32;;;;;;;9.73;4.75;;;;;;;20.78;91.52;100731.33;4959617;58;1138870;-63
2023/06/15 12:19:41;;;;;;;8.05;4.42;;;;;;;20.83;91.70;100727.57;4979026;57;1138649;-63
2023/06/15 12:24:48;;;;;;;9.07;5.17;;;;;;;20.83;88.86;100717.66;4997298;57;1138791;-64
2023/06/15 12:29:57;;;;;;;3.42;3.12;;;;;;;20.88;88.91;100714.44;5038344;57;1138709;-63
2023/06/15 12:35:03;;;;;;;5.70;4.08;;;;;;;20.93;88.86;100707.47;4937016;58;1138613;-65
2023/06/15 12:40:09;;;;;;;3.40;3.10;;;;;;;20.96;87.89;100715.19;4879839;59;1138887;-63
2023/06/15 12:45:15;;;;;;;2.60;2.40;;;;;;;20.90;85.16;100715.93;4959417;58;1138761;-63
2023/06/15 12:50:20;;;;;;;2.55;2.10;;;;;;;20.83;84.89;100712.28;4978653;58;1138638;-64
2023/06/15 12:55:28;;;;;;;6.92;3.10;;;;;;;20.80;85.01;100705.91;4959130;58;1138661;-63
2023/06/15 13:00:34;;;;;;;4.33;3.62;;;;;;;20.86;86.15;100704.37;4866881;59;1138907;-65
2023/06/15 13:05:42;;;;;;;23.02;18.10;;;;;;;20.90;86.39;100710.55;4992282;58;1138637;-66
2023/06/15 13:10:47;;;;;;;4.27;3.77;;;;;;;20.81;84.56;100708.93;4973941;57;1142898;-62
2023/06/15 13:15:53;;;;;;;3.25;2.70;;;;;;;20.88;83.09;100701.83;4959467;58;1138894;-62
2023/06/15 13:20:59;;;;;;;6.37;3.02;;;;;;;20.88;84.03;100684.86;5013738;57;1138606;-65
2023/06/15 13:26:05;;;;;;;4.03;2.72;;;;;;;20.95;81.98;100689.82;5041216;57;1138940;-64
2023/06/15 13:31:11;;;;;;;3.50;3.20;;;;;;;21.00;81.92;100685.58;5016886;57;1138813;-63
2023/06/15 13:36:17;;;;;;;9.93;3.52;;;;;;;21.13;82.21;100675.53;4979133;58;1138730;-65
2023/06/15 13:41:22;;;;;;;5.42;4.03;;;;;;;21.14;82.46;100685.78;4952273;58;1138718;-63
2023/06/15 13:46:30;;;;;;;6.72;2.95;;;;;;;21.11;82.12;100694.21;4959570;58;1138634;-63
2023/06/15 13:51:39;;;;;;;12.18;3.83;;;;;;;20.99;82.95;100708.61;5019839;57;1138728;-64
2023/06/15 13:56:45;;;;;;;39.27;13.08;;;;;;;20.78;82.34;100711.17;5031967;57;1140705;-63
2023/06/15 14:01:51;;;;;;;9.83;4.80;;;;;;;20.43;88.26;100742.98;5040939;57;1143041;-62
2023/06/15 14:06:58;;;;;;;17.45;6.40;;;;;;;19.82;92.92;100753.98;5047641;57;1138904;-63
2023/06/15 14:12:04;;;;;;;13.35;4.97;;;;;;;19.28;94.09;100759.59;5048329;57;1140815;-63
2023/06/15 14:17:11;;;;;;;7.53;4.30;;;;;;;18.45;99.41;100765.56;5014768;57;1140847;-66
2023/06/15 14:22:16;;;;;;;10.38;3.98;;;;;;;17.77;100.00;100746.40;5009152;57;1138634;-62
2023/06/15 14:27:22;;;;;;;5.75;3.30;;;;;;;17.48;100.00;100756.08;4972079;57;1142923;-63
2023/06/15 14:32:28;;;;;;;8.23;4.85;;;;;;;17.51;100.00;100750.41;5001179;57;1140677;-64
2023/06/15 14:37:34;;;;;;;4.10;2.42;;;;;;;17.38;100.00;100743.81;5009593;57;1140966;-65
2023/06/15 14:42:48;;;;;;;4.50;2.20;;;;;;;16.99;100.00;100727.31;4998799;57;1202729;-65
2023/06/15 14:47:56;;;;;;;20.30;7.13;;;;;;;16.81;100.00;100726.84;4971871;58;1140787;-64
2023/06/15 14:53:08;;;;;;;6.57;3.00;;;;;;;16.90;100.00;100721.58;4969938;57;1142953;-64
2023/06/15 14:58:13;;;;;;;3.43;2.00;;;;;;;16.78;100.00;100721.83;4991999;58;1140939;-63
2023/06/15 15:03:19;;;;;;;11.97;3.97;;;;;;;16.67;100.00;100717.20;5031345;57;1140700;-63
2023/06/15 15:08:24;;;;;;;8.10;3.90;;;;;;;16.71;100.00;100721.25;5050121;57;1143636;-64
2023/06/15 15:13:30;;;;;;;10.47;3.67;;;;;;;16.81;100.00;100711.30;5030747;57;1140888;-63
2023/06/15 15:18:37;;;;;;;5.90;3.63;;;;;;;17.05;100.00;100700.82;4977034;57;1142820;-65
2023/06/15 15:23:43;;;;;;;8.65;4.42;;;;;;;17.11;100.00;100698.84;5057780;57;1140728;-64
2023/06/15 15:28:49;;;;;;;8.40;3.55;;;;;;;17.11;100.00;100694.02;5054663;57;1141103;-65
2023/06/15 15:33:55;;;;;;;13.60;5.17;;;;;;;17.15;100.00;100690.02;5050240;57;1141394;-63
2023/06/15 15:39:00;;;;;;;11.57;4.62;;;;;;;17.24;100.00;100679.73;5041992;57;1143539;-68
2023/06/15 15:44:06;;;;;;;7.15;4.03;;;;;;;17.57;100.00;100675.38;5017688;57;1223177;-69
2023/06/15 15:49:12;;;;;;;12.20;7.25;;;;;;;17.91;100.00;100667.35;5020119;57;1231554;-68
2023/06/15 15:54:18;;;;;;;8.48;5.08;;;;;;;18.16;100.00;100670.95;5046664;57;1221029;-72
2023/06/15 15:59:23;;;;;;;3.33;3.02;;;;;;;18.45;100.00;100669.14;5046629;57;1226878;-68
2023/06/15 16:04:29;;;;;;;4.87;3.25;;;;;;;18.70;100.00;100661.97;4994161;57;1233053;-67
2023/06/15 16:09:34;;;;;;;3.80;3.50;;;;;;;18.86;100.00;100656.61;4978182;57;1243842;-71
2023/06/15 16:14:40;;;;;;;3.02;2.47;;;;;;;18.99;100.00;100663.63;5022911;57;1140957;-70
2023/06/15 16:19:46;;;;;;;5.62;3.02;;;;;;;18.99;100.00;100664.96;4945575;57;1140963;-70
2023/06/15 16:24:52;;;;;;;5.47;3.95;;;;;;;18.87;100.00;100673.02;5009786;58;1140688;-70
2023/06/15 16:29:58;;;;;;;3.70;2.08;;;;;;;18.73;100.00;100674.54;5037153;57;1140739;-67
2023/06/15 16:35:04;;;;;;;2.10;1.07;;;;;;;18.56;100.00;100683.55;5057609;57;1140542;-66
2023/06/15 16:40:11;;;;;;;2.22;2.00;;;;;;;18.57;100.00;100681.20;5173916;57;1141202;-68
2023/06/15 16:45:16;;;;;;;1.92;1.82;;;;;;;18.53;100.00;100685.20;5028429;57;1140688;-71
2023/06/15 16:50:22;;;;;;;3.75;3.45;;;;;;;18.47;100.00;100682.71;5005850;57;1140819;-68
2023/06/15 16:55:28;;;;;;;5.97;5.35;;;;;;;18.35;100.00;100673.80;5036360;58;1140845;-71
2023/06/15 17:00:34;;;;;;;8.00;5.42;;;;;;;18.26;100.00;100672.47;4999026;57;1140902;-71
2023/06/15 17:05:39;;;;;;;5.25;2.83;;;;;;;18.25;100.00;100664.59;5050285;57;1140747;-71
2023/06/15 17:10:45;;;;;;;2.47;2.27;;;;;;;18.24;100.00;100662.41;5043440;57;1141092;-70
2023/06/15 17:15:51;;;;;;;3.25;2.67;;;;;;;18.27;100.00;100654.56;5009611;57;1141056;-69
2023/06/15 17:20:56;;;;;;;2.52;2.33;;;;;;;18.23;100.00;100650.53;5027957;57;1141138;-71
2023/06/15 17:26:02;;;;;;;3.03;2.53;;;;;;;18.23;100.00;100656.72;4991707;58;1141235;-68
2023/06/15 17:31:07;;;;;;;5.20;2.10;;;;;;;18.37;100.00;100653.05;5024925;57;1140938;-68
2023/06/15 17:36:13;;;;;;;4.65;2.83;;;;;;;18.38;100.00;100666.28;5003104;57;1140875;-68
2023/06/15 17:41:19;;;;;;;2.50;2.22;;;;;;;18.30;100.00;100660.93;5037817;57;1142572;-70
2023/06/15 17:46:25;;;;;;;2.90;2.62;;;;;;;18.27;100.00;100664.77;5074152;57;1141019;-70
2023/06/15 17:51:30;;;;;;;6.95;2.75;;;;;;;18.34;100.00;100664.09;5050826;57;1140817;-70
2023/06/15 17:56:37;;;;;;;3.15;2.80;;;;;;;18.32;100.00;100663.45;5050209;57;1140952;-68
2023/06/15 18:01:42;;;;;;;9.75;5.30;;;;;;;18.38;100.00;100664.10;5045354;57;1140725;-69
2023/06/15 18:06:48;;;;;;;3.50;3.20;;;;;;;18.36;100.00;100665.60;4972312;58;1140814;-70
2023/06/15 18:11:53;;;;;;;6.15;3.10;;;;;;;18.23;100.00;100663.91;4972991;57;1140921;-70
2023/06/15 18:16:59;;;;;;;2.30;2.08;;;;;;;18.15;100.00;100667.93;5003747;57;1140677;-70
2023/06/15 18:22:05;;;;;;;4.53;3.10;;;;;;;18.01;100.00;100659.20;5009740;57;1140745;-71
2023/06/15 18:27:11;;;;;;;4.17;2.90;;;;;;;17.91;100.00;100661.50;5016054;57;1140869;-69
2023/06/15 18:32:16;;;;;;;3.63;3.20;;;;;;;17.83;100.00;100666.00;5010684;57;1140999;-68
2023/06/15 18:37:22;;;;;;;8.03;4.37;;;;;;;17.73;100.00;100658.09;5024291;57;1140821;-69
2023/06/15 18:42:27;;;;;;;6.07;4.90;;;;;;;17.72;100.00;100659.09;4993529;57;1140995;-68
2023/06/15 18:47:33;;;;;;;8.67;5.37;;;;;;;17.80;100.00;100666.32;5007571;57;1140908;-69
2023/06/15 18:52:39;;;;;;;6.33;4.62;;;;;;;17.72;100.00;100665.77;5011345;57;1140859;-69
2023/06/15 18:57:45;;;;;;;15.73;6.40;;;;;;;17.56;100.00;100657.19;4983161;57;1141205;-71
2023/06/15 19:02:50;;;;;;;6.73;5.67;;;;;;;17.46;100.00;100659.12;4995693;57;1143159;-72
2023/06/15 19:07:56;;;;;;;9.13;4.92;;;;;;;17.48;100.00;100658.47;5004269;57;1140941;-71
2023/06/15 19:13:02;;;;;;;9.57;4.90;;;;;;;17.41;100.00;100661.45;4989926;57;1141009;-69
2023/06/15 19:18:08;;;;;;;7.10;4.60;;;;;;;17.36;100.00;100657.08;4998709;57;1140867;-67
2023/06/15 19:23:13;;;;;;;5.67;5.07;;;;;;;17.37;100.00;100653.91;5011774;57;1141141;-68
2023/06/15 19:28:23;;;;;;;14.73;6.50;;;;;;;17.50;100.00;100655.64;4986818;57;1141239;-67
2023/06/15 19:33:29;;;;;;;5.30;4.43;;;;;;;17.52;100.00;100657.66;4990346;57;1143030;-69
2023/06/15 19:38:35;;;;;;;5.73;4.10;;;;;;;17.26;100.00;100652.86;5011189;57;1140954;-70
2023/06/15 19:43:41;;;;;;;4.10;3.70;;;;;;;16.98;100.00;100651.66;4996248;57;1140894;-67
2023/06/15 19:48:46;;;;;;;7.92;4.10;;;;;;;16.73;100.00;100646.66;4960127;58;1141115;-68
2023/06/15 19:53:52;;;;;;;6.13;4.13;;;;;;;16.61;100.00;100655.04;4988453;57;1141188;-71
2023/06/15 19:59:01;;;;;;;7.03;3.60;;;;;;;16.58;100.00;100652.17;5072692;57;1140960;-68
2023/06/15 20:04:05;;;;;;;7.13;4.70;;;;;;;16.74;100.00;100649.67;5042153;57;1141249;-70
2023/06/15 20:09:10;;;;;;;5.73;3.90;;;;;;;16.98;100.00;100654.33;5018009;57;1141085;-68
2023/06/15 20:14:16;;;;;;;15.53;5.60;;;;;;;17.13;100.00;100654.09;4978916;57;1140841;-71
2023/06/15 20:19:22;;;;;;;17.90;7.17;;;;;;;17.19;100.00;100661.50;4978378;57;1142992;-69
2023/06/15 20:24:27;;;;;;;10.70;5.60;;;;;;;17.18;100.00;100654.47;5062847;57;1142949;-69
2023/06/15 20:29:37;;;;;;;7.13;4.63;;;;;;;17.11;100.00;100657.95;5057809;57;1143557;-71
2023/06/15 20:34:40;;;;;;;10.77;5.50;;;;;;;16.63;100.00;100652.59;4963211;57;1141239;-69
2023/06/15 20:39:46;;;;;;;5.58;4.97;;;;;;;16.63;100.00;100652.59;5031389;57;1143157;-70
2023/06/15 20:44:52;;;;;;;7.73;3.63;;;;;;;16.52;100.00;100659.45;5040875;57;1140732;-71
2023/06/15 20:49:57;;;;;;;8.63;3.90;;;;;;;16.50;100.00;100657.43;4971586;57;1140916;-69
2023/06/15 20:55:04;;;;;;;7.30;3.87;;;;;;;16.28;100.00;100657.42;4938859;57;1141892;-67
2023/06/15 21:00:12;;;;;;;6.67;5.03;;;;;;;16.25;100.00;100656.88;4939283;57;1140917;-70
2023/06/15 21:05:17;;;;;;;8.60;7.40;;;;;;;16.39;100.00;100655.84;4957462;57;1141025;-71
2023/06/15 21:10:23;;;;;;;9.43;6.97;;;;;;;16.54;100.00;100647.63;4985175;57;1140703;-69
2023/06/15 21:15:29;;;;;;;11.57;7.40;;;;;;;16.59;100.00;100647.18;4972501;57;1140795;-69
2023/06/15 21:20:37;;;;;;;13.33;7.77;;;;;;;16.37;100.00;100651.64;4958075;57;1143066;-71
2023/06/15 21:25:41;;;;;;;11.80;7.53;;;;;;;16.25;100.00;100644.37;4894493;58;1143006;-70
2023/06/15 21:30:47;;;;;;;12.40;6.50;;;;;;;16.32;100.00;100637.45;4938657;57;1143047;-73
2023/06/15 21:35:52;;;;;;;10.93;6.55;;;;;;;16.33;100.00;100640.45;4906727;57;1142889;-71
2023/06/15 21:40:58;;;;;;;51.33;19.60;;;;;;;16.40;100.00;100635.33;4916011;57;1143252;-70
2023/06/15 21:46:04;;;;;;;21.03;10.70;;;;;;;16.26;100.00;100636.70;4933282;57;1145471;-72
2023/06/15 21:51:10;;;;;;;22.90;9.70;;;;;;;15.95;100.00;100640.73;4938696;57;1145242;-69
2023/06/15 21:56:15;;;;;;;62.77;9.67;;;;;;;15.61;100.00;100648.50;4981597;58;1143227;-70
2023/06/15 22:01:23;;;;;;;39.23;10.40;;;;;;;15.53;100.00;100645.72;4968281;57;1143129;-71
2023/06/15 22:06:28;;;;;;;22.43;10.43;;;;;;;15.61;100.00;100642.67;4923249;57;1145051;-68
2023/06/15 22:11:34;;;;;;;21.23;12.53;;;;;;;15.75;100.00;100632.84;4944307;57;1145072;-70
2023/06/15 22:16:41;;;;;;;14.75;10.23;;;;;;;15.85;100.00;100627.96;4885890;57;1145136;-70
2023/06/15 22:21:46;;;;;;;12.13;9.07;;;;;;;15.91;100.00;100630.01;4779100;59;1145191;-72
2023/06/15 22:26:52;;;;;;;59.77;13.13;;;;;;;15.91;100.00;100632.67;5019290;57;1143432;-70
2023/06/15 22:31:57;;;;;;;23.40;10.95;;;;;;;15.89;100.00;100636.02;5071336;57;1144974;-71
2023/06/15 22:37:03;;;;;;;28.00;16.60;;;;;;;15.80;100.00;100632.41;5116709;57;1144763;-70
2023/06/15 22:42:10;;;;;;;24.47;14.70;;;;;;;15.80;100.00;100623.06;5011729;57;1144870;-71
2023/06/15 22:47:20;;;;;;;28.07;17.73;;;;;;;15.75;100.00;100632.84;5046893;58;1145262;-71
2023/06/15 22:52:24;;;;;;;35.23;20.93;;;;;;;15.60;100.00;100627.66;4882955;59;1144698;-71